Time;durP1;ratioP1;P1;durP2;ratioP2;P2;SDS_P1;SDS_P2;PMS_P1;PMS_P2;Temp;Humidity;BMP_temperature;BMP_pressure;BME280_temperature;BME280_humidity;BME280_pressure;Samples;Min_cycle;Max_cycle;Signal;HPM_P1;HPM_P2
2023/10/02 00:02:47;;;;;;;12.73;6.93;;;19.40;99.90;;;;;;6145890;23;20399;-88
2023/10/02 00:05:40;;;;;;;12.57;7.70;;;19.40;99.90;;;;;;6151206;23;20407;-87
2023/10/02 00:08:42;;;;;;;12.40;7.30;;;19.30;99.90;;;;;;6135730;23;20450;-85
2023/10/02 00:12:21;;;;;;;;;;;;;;;;;;;;;
2023/10/02 00:15:03;;;;;;;12.87;7.80;;;19.40;99.90;;;;;;6152023;23;20443;-84
2023/10/02 00:18:03;;;;;;;10.47;6.77;;;19.30;99.90;;;;;;6121026;23;20528;-86
2023/10/02 00:20:42;;;;;;;8.20;6.00;;;19.40;99.90;;;;;;6134341;23;20411;-85
2023/10/02 00:23:16;;;;;;;16.50;7.67;;;19.20;99.90;;;;;;6135058;23;20405;-84
2023/10/02 00:26:10;;;;;;;12.10;7.00;;;19.10;99.90;;;;;;6134102;23;20403;-84
2023/10/02 00:28:40;;;;;;;12.20;6.33;;;19.00;99.90;;;;;;6146322;23;20982;-87
2023/10/02 00:31:33;;;;;;;11.20;6.60;;;19.00;99.90;;;;;;6118365;23;20439;-86
2023/10/02 00:34:44;;;;;;;10.87;7.23;;;19.00;99.90;;;;;;6144253;23;20542;-87
2023/10/02 00:37:48;;;;;;;11.90;7.37;;;19.20;99.90;;;;;;6156808;23;20464;-87
2023/10/02 00:41:11;;;;;;;12.47;7.70;;;19.20;99.90;;;;;;6149042;23;20402;-87
2023/10/02 00:43:46;;;;;;;12.30;7.00;;;19.20;99.90;;;;;;6148006;23;20497;-88
2023/10/02 00:46:25;;;;;;;18.10;7.23;;;19.20;99.90;;;;;;6146860;23;20474;-87
2023/10/02 00:49:35;;;;;;;11.30;7.20;;;19.10;99.90;;;;;;6180162;23;20445;-87
2023/10/02 00:52:21;;;;;;;14.40;6.87;;;19.00;99.90;;;;;;6178484;23;20394;-88
2023/10/02 00:55:16;;;;;;;;;;;;;;;;;;;;;
2023/10/02 00:58:10;;;;;;;11.70;6.73;;;19.10;99.90;;;;;;6206548;23;20449;-85
2023/10/02 01:00:50;;;;;;;9.83;6.20;;;19.10;99.90;;;;;;6160146;23;20474;-85
2023/10/02 01:04:03;;;;;;;11.43;7.13;;;19.00;99.90;;;;;;6180792;23;20489;-85
2023/10/02 01:12:38;;;;;;;11.67;8.17;;;18.80;99.90;;;;;;6197078;23;20397;-85
2023/10/02 01:15:26;;;;;;;13.97;7.73;;;18.80;99.90;;;;;;6168690;23;20413;-83
2023/10/02 01:21:29;;;;;;;11.10;6.80;;;19.00;99.90;;;;;;6208348;23;20373;-86
2023/10/02 01:24:19;;;;;;;10.80;7.00;;;19.00;99.90;;;;;;6179343;23;20413;-86
2023/10/02 01:26:57;;;;;;;11.30;6.53;;;18.90;99.90;;;;;;6175306;23;20456;-86
2023/10/02 01:30:13;;;;;;;14.90;7.13;;;18.90;99.90;;;;;;6172943;23;20500;-86
2023/10/02 01:36:02;;;;;;;10.00;6.80;;;18.70;99.90;;;;;;6191821;23;20406;-86
2023/10/02 01:38:37;;;;;;;9.80;6.50;;;18.70;99.90;;;;;;6165220;23;20413;-87
2023/10/02 01:41:14;;;;;;;12.50;7.43;;;18.70;99.90;;;;;;6163977;23;20405;-85
2023/10/02 01:43:50;;;;;;;13.80;7.37;;;18.70;99.90;;;;;;6160164;23;20433;-86
2023/10/02 01:46:36;;;;;;;11.40;6.63;;;18.70;99.90;;;;;;6156481;23;20434;-85
2023/10/02 01:49:24;;;;;;;12.50;7.70;;;18.50;99.90;;;;;;6152999;23;21234;-83
2023/10/02 01:52:13;;;;;;;10.30;6.80;;;18.70;99.90;;;;;;6141721;23;21269;-86
2023/10/02 01:54:51;;;;;;;11.33;6.73;;;18.50;99.90;;;;;;6161975;23;20405;-85
2023/10/02 01:57:34;;;;;;;9.80;6.70;;;18.40;99.90;;;;;;6156943;23;20434;-84
2023/10/02 02:00:24;;;;;;;12.00;6.97;;;18.40;99.90;;;;;;6157941;23;20421;-85
2023/10/02 02:03:14;;;;;;;12.00;6.87;;;18.30;99.90;;;;;;6156066;23;20456;-85
2023/10/02 02:06:21;;;;;;;11.80;7.33;;;18.20;99.90;;;;;;6184883;23;20410;-87
2023/10/02 02:09:08;;;;;;;12.57;7.03;;;18.30;99.90;;;;;;6185627;23;20402;-86
2023/10/02 02:11:36;;;;;;;12.40;7.70;;;18.10;99.90;;;;;;6159425;23;20406;-85
2023/10/02 02:14:27;;;;;;;11.33;7.57;;;18.30;99.90;;;;;;6158799;23;20406;-88
2023/10/02 02:17:01;;;;;;;11.00;6.23;;;18.30;99.90;;;;;;6189938;23;20433;-87
2023/10/02 02:19:59;;;;;;;10.30;6.63;;;18.20;99.90;;;;;;6195025;23;20406;-85
2023/10/02 02:22:31;;;;;;;12.10;7.23;;;18.30;99.90;;;;;;6189690;23;20413;-85
2023/10/02 02:25:12;;;;;;;11.63;6.50;;;18.40;99.90;;;;;;6190929;23;20445;-85
2023/10/02 02:27:55;;;;;;;12.13;7.43;;;18.20;99.90;;;;;;6168332;23;20470;-85
2023/10/02 02:30:25;;;;;;;10.80;7.00;;;18.10;99.90;;;;;;6154629;23;20794;-86
2023/10/02 02:33:12;;;;;;;9.07;6.33;;;18.20;99.90;;;;;;6156757;23;20867;-85
2023/10/02 02:36:05;;;;;;;11.70;6.57;;;18.30;99.90;;;;;;6153964;23;20556;-86
2023/10/02 02:39:05;;;;;;;13.50;8.30;;;18.50;99.90;;;;;;6156585;23;20413;-83
2023/10/02 02:41:38;;;;;;;12.13;7.57;;;18.70;99.90;;;;;;6154653;23;20787;-86
2023/10/02 02:47:08;;;;;;;14.47;7.63;;;18.40;99.90;;;;;;6180780;23;20474;-84
2023/10/02 02:49:51;;;;;;;10.20;6.30;;;18.00;99.90;;;;;;6156190;23;20577;-85
2023/10/02 02:52:22;;;;;;;11.93;7.10;;;17.90;99.90;;;;;;6155578;23;21084;-86
2023/10/02 02:55:12;;;;;;;10.40;6.40;;;18.40;99.90;;;;;;6180560;23;20727;-83
2023/10/02 02:57:54;;;;;;;12.60;7.50;;;18.10;99.90;;;;;;6065555;23;20529;-86
2023/10/02 03:00:30;;;;;;;12.37;6.80;;;18.10;99.90;;;;;;6132928;23;20485;-85
2023/10/02 03:03:00;;;;;;;12.30;7.73;;;18.00;99.90;;;;;;6161684;23;20477;-87
2023/10/02 03:05:41;;;;;;;11.47;6.90;;;18.00;99.90;;;;;;6158605;23;20414;-86
2023/10/02 03:08:12;;;;;;;10.67;6.80;;;18.00;99.90;;;;;;6159132;23;20540;-85
2023/10/02 03:10:57;;;;;;;9.70;6.80;;;17.80;99.90;;;;;;6159636;23;20422;-87
2023/10/02 03:13:43;;;;;;;11.80;6.53;;;17.90;99.90;;;;;;6161410;23;20418;-85
2023/10/02 03:16:39;;;;;;;13.53;7.83;;;18.00;99.90;;;;;;6165456;23;21064;-86
2023/10/02 03:19:19;;;;;;;12.17;7.53;;;18.10;99.90;;;;;;6165277;23;20421;-85
2023/10/02 03:22:02;;;;;;;15.63;7.50;;;18.00;99.90;;;;;;6161457;23;20456;-85
2023/10/02 03:24:46;;;;;;;13.60;7.87;;;17.90;99.90;;;;;;6177694;23;20394;-88
2023/10/02 03:27:40;;;;;;;13.07;7.40;;;17.60;99.90;;;;;;6177001;23;20460;-88
2023/10/02 03:30:11;;;;;;;11.43;6.37;;;17.70;99.90;;;;;;6171819;23;20413;-86
2023/10/02 03:32:56;;;;;;;;;;;;;;;;;;;;;
2023/10/02 03:35:56;;;;;;;11.40;6.90;;;17.90;99.90;;;;;;6192371;23;20416;-84
2023/10/02 03:38:33;;;;;;;13.43;7.40;;;17.80;99.90;;;;;;6172952;23;20430;-86
2023/10/02 03:41:18;;;;;;;12.80;7.40;;;17.80;99.90;;;;;;6196517;23;20402;-86
2023/10/02 03:43:57;;;;;;;13.63;7.97;;;17.80;99.90;;;;;;6171690;23;20473;-85
2023/10/02 03:46:36;;;;;;;13.57;7.13;;;17.80;99.90;;;;;;6166078;23;20497;-86
2023/10/02 03:49:18;;;;;;;13.10;7.57;;;17.60;99.90;;;;;;6167129;23;20440;-85
2023/10/02 03:51:50;;;;;;;13.13;7.50;;;17.70;99.90;;;;;;6157899;23;20409;-84
2023/10/02 03:54:36;;;;;;;12.33;6.40;;;17.70;99.90;;;;;;6156041;23;20409;-85
2023/10/02 03:57:37;;;;;;;12.07;7.70;;;17.60;99.90;;;;;;6157571;23;20436;-83
2023/10/02 04:00:24;;;;;;;12.77;8.50;;;17.70;99.90;;;;;;6191834;23;20479;-88
2023/10/02 04:03:05;;;;;;;12.73;6.70;;;17.60;99.90;;;;;;6178402;23;20444;-88
2023/10/02 04:05:46;;;;;;;13.20;6.53;;;17.60;99.90;;;;;;6179285;23;20410;-87
2023/10/02 04:08:22;;;;;;;15.63;8.07;;;17.60;99.90;;;;;;6179807;23;20464;-87
2023/10/02 04:10:51;;;;;;;11.20;6.97;;;17.50;99.90;;;;;;6179637;23;20459;-88
2023/10/02 04:13:32;;;;;;;12.83;7.30;;;17.60;99.90;;;;;;6179321;23;20421;-87
2023/10/02 04:19:08;;;;;;;13.00;6.60;;;17.40;99.90;;;;;;6190673;23;20421;-86
2023/10/02 04:21:56;;;;;;;9.80;5.93;;;17.50;99.90;;;;;;6160355;23;20402;-85
2023/10/02 04:24:51;;;;;;;13.77;7.60;;;17.40;99.90;;;;;;6157682;23;20410;-85
2023/10/02 04:28:15;;;;;;;9.83;6.97;;;17.50;99.90;;;;;;6157613;23;20533;-85
2023/10/02 04:30:26;;;;;;;12.17;7.30;;;17.50;99.90;;;;;;6170219;23;20424;-84
2023/10/02 04:33:18;;;;;;;11.47;6.90;;;17.60;99.90;;;;;;6150072;23;20432;-84
2023/10/02 04:35:57;;;;;;;11.80;7.33;;;17.60;99.90;;;;;;6177141;23;20417;-85
2023/10/02 04:38:49;;;;;;;14.10;6.37;;;17.40;99.90;;;;;;6155501;23;20429;-85
2023/10/02 04:41:27;;;;;;;11.07;7.47;;;17.30;99.90;;;;;;6135722;23;20433;-85
2023/10/02 04:44:04;;;;;;;12.37;7.53;;;17.40;99.90;;;;;;6179795;23;20432;-86
2023/10/02 04:46:36;;;;;;;11.00;6.87;;;17.60;99.90;;;;;;6182726;23;20449;-88
2023/10/02 04:49:13;;;;;;;10.97;6.97;;;17.60;99.90;;;;;;6185814;23;20446;-87
2023/10/02 04:51:46;;;;;;;10.90;6.93;;;17.50;99.90;;;;;;6161877;23;20490;-88
2023/10/02 04:54:27;;;;;;;15.23;7.90;;;17.50;99.90;;;;;;6164133;23;20975;-87
2023/10/02 04:57:11;;;;;;;14.97;7.90;;;17.50;99.90;;;;;;6195497;23;20426;-87
2023/10/02 04:59:54;;;;;;;17.93;8.80;;;17.50;99.90;;;;;;6155765;23;20479;-85
2023/10/02 05:02:31;;;;;;;12.87;7.53;;;17.20;99.90;;;;;;6151916;23;20496;-86
2023/10/02 05:05:16;;;;;;;13.47;6.83;;;17.30;99.90;;;;;;6152620;23;20417;-85
2023/10/02 05:07:52;;;;;;;11.03;7.23;;;17.30;99.90;;;;;;6151943;23;20957;-86
2023/10/02 05:10:23;;;;;;;13.17;7.07;;;17.30;99.90;;;;;;6151866;23;20414;-88
2023/10/02 05:12:56;;;;;;;11.30;7.27;;;17.30;99.90;;;;;;6150855;23;20414;-86
2023/10/02 05:15:38;;;;;;;;;;;;;;;;;;;;;
2023/10/02 05:18:17;;;;;;;14.10;7.67;;;17.20;99.90;;;;;;6179171;23;20438;-86
2023/10/02 05:20:55;;;;;;;14.77;7.53;;;17.10;99.90;;;;;;6156197;23;20394;-86
2023/10/02 05:23:56;;;;;;;11.37;6.63;;;17.00;99.90;;;;;;6154062;23;20817;-86
2023/10/02 05:26:32;;;;;;;11.27;7.00;;;17.00;99.90;;;;;;6154166;23;20418;-88
2023/10/02 05:29:36;;;;;;;15.40;7.87;;;17.30;99.90;;;;;;6180473;23;20460;-86
2023/10/02 05:32:23;;;;;;;11.20;7.83;;;17.00;99.90;;;;;;6136127;23;20459;-87
2023/10/02 05:37:45;;;;;;;11.63;7.57;;;17.40;99.90;;;;;;6178570;23;20529;-87
2023/10/02 05:43:17;;;;;;;11.83;7.33;;;16.80;99.90;;;;;;6168295;23;20414;-85
2023/10/02 05:45:57;;;;;;;14.90;8.50;;;16.80;99.90;;;;;;6156564;23;20418;-85
2023/10/02 05:49:06;;;;;;;13.87;7.40;;;16.80;99.90;;;;;;6156112;23;20456;-88
2023/10/02 05:52:00;;;;;;;13.30;7.03;;;16.80;99.90;;;;;;6157883;23;20472;-85
2023/10/02 05:54:58;;;;;;;10.23;7.00;;;16.80;99.90;;;;;;6157491;23;20414;-87
2023/10/02 05:57:52;;;;;;;;;;;;;;;;;;;;;
2023/10/02 06:00:35;;;;;;;11.90;7.87;;;17.00;99.90;;;;;;6182376;23;20414;-87
2023/10/02 06:03:14;;;;;;;10.70;7.30;;;17.00;99.90;;;;;;6160856;23;20413;-86
2023/10/02 06:09:03;;;;;;;14.30;7.17;;;17.50;99.90;;;;;;6183235;23;20520;-87
2023/10/02 06:11:59;;;;;;;9.23;6.70;;;17.20;99.90;;;;;;6160955;23;20410;-87
2023/10/02 06:14:45;;;;;;;13.80;7.20;;;17.30;99.90;;;;;;6197672;23;20398;-87
2023/10/02 06:17:32;;;;;;;12.93;8.13;;;17.20;99.90;;;;;;6158320;23;20440;-86
2023/10/02 06:20:25;;;;;;;11.93;7.40;;;17.60;99.90;;;;;;6069484;23;20396;-86
2023/10/02 06:26:14;;;;;;;12.00;7.60;;;17.60;99.90;;;;;;6093178;23;20451;-86
2023/10/02 06:28:47;;;;;;;11.43;6.80;;;17.40;99.90;;;;;;6116556;23;20491;-85
2023/10/02 06:31:31;;;;;;;12.43;8.10;;;17.40;99.90;;;;;;6152111;23;20405;-86
2023/10/02 06:34:08;;;;;;;16.83;8.67;;;17.90;99.90;;;;;;6147331;23;20413;-86
2023/10/02 06:37:02;;;;;;;13.57;7.37;;;17.70;99.90;;;;;;6141581;23;20509;-86
2023/10/02 06:39:41;;;;;;;13.30;7.70;;;17.90;99.90;;;;;;6154944;23;20453;-85
2023/10/02 06:42:19;;;;;;;14.87;7.43;;;17.90;99.90;;;;;;6154490;23;20426;-85
2023/10/02 06:44:55;;;;;;;13.67;7.67;;;18.10;99.90;;;;;;6174053;23;20476;-86
2023/10/02 06:47:50;;;;;;;12.33;7.83;;;18.20;99.90;;;;;;6191647;23;20496;-87
2023/10/02 06:50:59;;;;;;;13.40;7.50;;;18.30;99.90;;;;;;6203476;23;20429;-87
2023/10/02 06:54:19;;;;;;;12.53;7.53;;;18.10;99.90;;;;;;6189671;23;20390;-85
2023/10/02 06:57:13;;;;;;;12.33;7.40;;;18.40;99.90;;;;;;6143733;23;20555;-87
2023/10/02 06:59:53;;;;;;;13.83;7.80;;;18.40;99.90;;;;;;6182701;23;20805;-87
2023/10/02 07:02:56;;;;;;;12.43;7.67;;;18.60;99.90;;;;;;6166055;23;20471;-88
2023/10/02 07:05:32;;;;;;;11.10;7.03;;;18.50;99.90;;;;;;6192029;23;20476;-87
2023/10/02 07:08:17;;;;;;;12.47;8.07;;;18.80;99.90;;;;;;6161990;23;20446;-87
2023/10/02 07:10:52;;;;;;;11.83;6.80;;;19.40;99.90;;;;;;6156860;23;20440;-87
2023/10/02 07:13:51;;;;;;;9.20;6.83;;;19.70;99.30;;;;;;6156794;23;20780;-86
2023/10/02 07:16:42;;;;;;;12.97;7.43;;;20.00;98.70;;;;;;6166981;23;20436;-86
2023/10/02 07:19:38;;;;;;;15.80;8.30;;;20.60;97.70;;;;;;6179699;23;20401;-85
2023/10/02 07:22:53;;;;;;;12.40;7.47;;;21.00;96.30;;;;;;6156720;23;20438;-85
2023/10/02 07:25:49;;;;;;;11.00;6.70;;;21.20;95.30;;;;;;6155184;23;20525;-84
2023/10/02 07:28:27;;;;;;;14.63;7.57;;;22.10;94.60;;;;;;6175947;23;20474;-86
2023/10/02 07:31:30;;;;;;;11.60;6.83;;;23.40;92.80;;;;;;6124775;23;20449;-86
2023/10/02 07:34:29;;;;;;;8.37;6.00;;;24.20;90.10;;;;;;6177791;23;20414;-86
2023/10/02 07:37:21;;;;;;;13.67;8.70;;;24.10;88.40;;;;;;6145944;23;20434;-87
2023/10/02 07:40:09;;;;;;;10.63;7.17;;;24.50;88.30;;;;;;6153253;23;20420;-88
2023/10/02 07:42:49;;;;;;;11.23;7.47;;;24.90;85.20;;;;;;6152045;23;20426;-87
2023/10/02 07:45:30;;;;;;;13.43;6.80;;;24.20;85.60;;;;;;6178563;23;20430;-86
2023/10/02 07:48:19;;;;;;;19.73;14.33;;;22.60;89.90;;;;;;6090666;23;20922;-85
2023/10/02 07:50:52;;;;;;;12.67;7.00;;;21.30;92.80;;;;;;6151374;23;20420;-85
2023/10/02 07:53:40;;;;;;;12.80;6.90;;;21.00;94.60;;;;;;6155359;23;20890;-86
2023/10/02 07:56:47;;;;;;;14.00;8.43;;;20.60;95.30;;;;;;6145038;23;20426;-84
2023/10/02 07:59:49;;;;;;;15.67;7.40;;;20.40;96.00;;;;;;6159080;23;20409;-86
2023/10/02 08:02:33;;;;;;;13.90;7.43;;;20.40;96.70;;;;;;6181709;23;20406;-85
2023/10/02 08:05:10;;;;;;;13.47;7.77;;;20.30;97.00;;;;;;6165430;23;20874;-87
2023/10/02 08:08:07;;;;;;;11.60;6.60;;;20.20;97.10;;;;;;6165738;23;20438;-86
2023/10/02 08:11:11;;;;;;;16.20;11.37;;;20.30;96.90;;;;;;6187216;23;20406;-85
2023/10/02 08:13:54;;;;;;;13.03;6.90;;;20.30;97.00;;;;;;6161165;23;20406;-86
2023/10/02 08:19:40;;;;;;;11.83;6.50;;;20.40;97.00;;;;;;6189896;23;20406;-85
2023/10/02 08:23:07;;;;;;;13.63;6.77;;;20.00;96.80;;;;;;6170296;23;20406;-86
2023/10/02 08:25:26;;;;;;;13.10;7.97;;;20.50;97.00;;;;;;6180509;23;20441;-86
2023/10/02 08:32:12;;;;;;;12.20;7.07;;;20.60;96.60;;;;;;6170736;23;20429;-85
2023/10/02 08:35:11;;;;;;;;;;;;;;;;;;;;;
2023/10/02 08:41:43;;;;;;;12.17;7.67;;;21.10;95.70;;;;;;6132505;23;20410;-86
2023/10/02 08:47:50;;;;;;;14.50;6.90;;;21.30;95.20;;;;;;6157630;23;20513;-86
2023/10/02 08:50:37;;;;;;;10.77;6.90;;;21.40;95.00;;;;;;6155057;23;20425;-86
2023/10/02 08:53:36;;;;;;;12.20;7.40;;;21.20;95.40;;;;;;6153248;23;20413;-85
2023/10/02 08:56:43;;;;;;;15.70;8.40;;;21.30;95.50;;;;;;6153039;23;20422;-85
2023/10/02 09:02:54;;;;;;;11.60;6.53;;;21.60;95.10;;;;;;6164713;23;20421;-86
2023/10/02 09:06:25;;;;;;;11.33;6.70;;;21.60;95.10;;;;;;6177799;23;20414;-86
2023/10/02 09:09:55;;;;;;;;;;;;;;;;;;;;;
2023/10/02 09:16:30;;;;;;;13.93;6.90;;;21.80;95.00;;;;;;6191646;23;20401;-87
2023/10/02 09:19:37;;;;;;;14.97;8.50;;;21.80;95.20;;;;;;6159536;23;20410;-85
2023/10/02 09:22:46;;;;;;;13.90;7.20;;;21.80;95.00;;;;;;6158706;23;20485;-87
2023/10/02 09:25:23;;;;;;;11.07;7.00;;;21.60;95.30;;;;;;6163770;23;20418;-88
2023/10/02 09:29:06;;;;;;;13.40;8.10;;;21.60;95.50;;;;;;6163930;23;21128;-86
2023/10/02 09:32:04;;;;;;;14.80;7.73;;;22.10;94.60;;;;;;6095191;23;20409;-85
2023/10/02 09:35:08;;;;;;;11.97;7.27;;;22.20;94.50;;;;;;6197462;23;20421;-88
2023/10/02 09:38:23;;;;;;;12.47;7.50;;;22.40;94.50;;;;;;6201624;23;20433;-87
2023/10/02 09:43:49;;;;;;;12.60;7.63;;;25.30;88.10;;;;;;6178305;23;21068;-85
2023/10/02 09:46:34;;;;;;;11.87;7.50;;;25.60;85.80;;;;;;6152355;23;20460;-86
2023/10/02 09:49:32;;;;;;;11.30;7.30;;;26.70;81.00;;;;;;6155042;23;20457;-85
2023/10/02 09:52:34;;;;;;;12.00;7.23;;;27.20;77.30;;;;;;6152497;23;20410;-87
2023/10/02 09:59:16;;;;;;;11.70;7.60;;;28.20;71.10;;;;;;6056245;23;20417;-87
2023/10/02 10:16:40;;;;;;;10.80;7.33;;;28.10;70.00;;;;;;6060553;23;20448;-86
2023/10/02 10:19:26;;;;;;;12.57;8.17;;;27.80;70.60;;;;;;6073911;23;20562;-84
2023/10/02 10:23:02;;;;;;;12.60;9.03;;;26.90;73.10;;;;;;6160050;23;20425;-87
2023/10/02 10:26:10;;;;;;;12.23;8.10;;;26.40;76.40;;;;;;6137392;23;20756;-88
2023/10/02 10:28:58;;;;;;;12.00;9.07;;;26.10;77.80;;;;;;6164484;23;20433;-87
2023/10/02 10:31:55;;;;;;;13.40;7.90;;;25.80;78.80;;;;;;6182544;23;20474;-87
2023/10/02 10:35:20;;;;;;;12.57;7.87;;;25.70;80.50;;;;;;6136993;23;20406;-86
2023/10/02 10:38:26;;;;;;;12.43;8.60;;;25.90;79.60;;;;;;6163228;23;20441;-85
2023/10/02 10:41:57;;;;;;;10.50;7.40;;;25.90;79.70;;;;;;6139519;23;20425;-85
2023/10/02 10:45:18;;;;;;;10.47;7.47;;;25.70;80.20;;;;;;6143130;23;21286;-85
2023/10/02 10:51:52;;;;;;;11.33;6.80;;;25.70;80.80;;;;;;6116321;23;20410;-88
2023/10/02 10:54:42;;;;;;;12.30;8.13;;;25.50;81.40;;;;;;6159826;23;20421;-86
2023/10/02 11:01:44;;;;;;;;;;;;;;;;;;;;;
2023/10/02 11:07:55;;;;;;;10.87;7.07;;;25.90;81.20;;;;;;6065539;23;20413;-85
2023/10/02 11:10:25;;;;;;;12.07;7.77;;;26.00;81.30;;;;;;6055177;23;20441;-87
2023/10/02 11:13:24;;;;;;;11.73;6.80;;;26.10;80.50;;;;;;6084832;23;20414;-86
2023/10/02 11:16:20;;;;;;;13.00;7.80;;;26.00;81.00;;;;;;6058224;23;20421;-86
2023/10/02 11:19:21;;;;;;;;;;;;;;;;;;;;;
2023/10/02 11:22:22;;;;;;;13.07;9.83;;;26.10;81.50;;;;;;6062879;23;20635;-87
2023/10/02 11:25:25;;;;;;;12.23;8.83;;;26.10;81.10;;;;;;6062755;23;20436;-85
2023/10/02 11:28:01;;;;;;;13.80;7.83;;;26.30;80.70;;;;;;6046189;23;20445;-87
2023/10/02 11:36:52;;;;;;;13.90;7.70;;;26.60;78.70;;;;;;6066485;23;20516;-87
2023/10/02 11:39:28;;;;;;;10.47;6.80;;;26.50;79.50;;;;;;6042468;23;20480;-87
2023/10/02 11:42:14;;;;;;;13.73;7.57;;;26.70;77.90;;;;;;6049390;23;20508;-86
2023/10/02 11:44:44;;;;;;;13.10;8.13;;;27.00;77.80;;;;;;6121926;23;20417;-86
2023/10/02 11:47:26;;;;;;;13.50;7.30;;;27.20;76.10;;;;;;6158712;23;20492;-86
2023/10/02 11:50:27;;;;;;;12.57;7.87;;;27.40;75.30;;;;;;6158112;23;20503;-84
2023/10/02 11:53:01;;;;;;;12.53;6.80;;;27.40;74.70;;;;;;6155903;23;20423;-86
2023/10/02 11:55:51;;;;;;;12.23;7.47;;;27.30;73.90;;;;;;6153561;23;20418;-85
2023/10/02 11:58:42;;;;;;;15.43;7.50;;;27.60;71.20;;;;;;6158789;23;20993;-86
2023/10/02 12:01:17;;;;;;;12.13;7.13;;;27.90;71.20;;;;;;6156336;23;20710;-86
2023/10/02 12:03:50;;;;;;;14.70;9.13;;;28.40;69.30;;;;;;6154797;23;20887;-87
2023/10/02 12:06:38;;;;;;;14.70;8.63;;;28.20;70.30;;;;;;6158730;23;21099;-87
2023/10/02 12:09:33;;;;;;;11.47;7.50;;;28.40;69.90;;;;;;6154880;23;20462;-87
2023/10/02 12:12:19;;;;;;;12.57;7.70;;;28.30;70.10;;;;;;6155593;23;20394;-86
2023/10/02 12:15:15;;;;;;;10.87;8.00;;;28.80;69.10;;;;;;6158869;23;20449;-86
2023/10/02 12:18:09;;;;;;;12.43;8.20;;;29.00;69.10;;;;;;6157459;23;20494;-86
2023/10/02 12:25:01;;;;;;;10.57;8.00;;;29.30;66.80;;;;;;6083644;23;20414;-87
2023/10/02 12:27:53;;;;;;;12.73;7.33;;;29.50;66.10;;;;;;6115671;23;20434;-88
2023/10/02 12:31:24;;;;;;;11.00;7.73;;;29.50;65.80;;;;;;6143466;23;21508;-85
2023/10/02 12:34:36;;;;;;;12.77;8.07;;;28.60;68.00;;;;;;6160467;23;20405;-85
2023/10/02 12:37:58;;;;;;;13.43;9.23;;;29.10;67.80;;;;;;6165600;23;20445;-87
2023/10/02 12:40:40;;;;;;;14.57;8.30;;;29.40;67.20;;;;;;6190996;23;20437;-87
2023/10/02 12:43:35;;;;;;;14.50;9.30;;;29.70;66.70;;;;;;6179427;23;20417;-87
2023/10/02 12:46:40;;;;;;;13.50;8.57;;;29.70;66.50;;;;;;6157389;23;20446;-86
2023/10/02 12:49:34;;;;;;;11.30;7.73;;;29.40;66.40;;;;;;6151342;23;20457;-90
2023/10/02 12:52:35;;;;;;;11.70;7.80;;;29.60;65.90;;;;;;6174055;23;20437;-89
2023/10/02 12:55:45;;;;;;;11.97;8.30;;;30.00;64.90;;;;;;6179102;23;20410;-89
2023/10/02 12:58:19;;;;;;;12.87;7.60;;;30.00;64.70;;;;;;6049978;23;20476;-86
2023/10/02 13:01:03;;;;;;;12.50;7.70;;;29.70;65.10;;;;;;6157800;23;20406;-87
2023/10/02 13:04:17;;;;;;;13.00;8.90;;;29.20;66.10;;;;;;6160548;23;20513;-87
2023/10/02 13:10:23;;;;;;;11.50;8.37;;;29.50;66.50;;;;;;6180676;23;20470;-87
2023/10/02 13:13:01;;;;;;;12.17;7.77;;;29.50;65.50;;;;;;6158760;23;20413;-87
2023/10/02 13:16:04;;;;;;;12.30;7.47;;;29.20;65.60;;;;;;6180154;23;20398;-87
2023/10/02 13:18:50;;;;;;;10.07;7.10;;;29.40;66.10;;;;;;6155715;23;20692;-87
2023/10/02 13:22:05;;;;;;;11.40;7.77;;;29.50;65.50;;;;;;6153035;23;20421;-88
2023/10/02 13:24:50;;;;;;;10.67;7.20;;;29.30;65.40;;;;;;6179590;23;20417;-88
2023/10/02 13:28:11;;;;;;;13.03;8.27;;;29.50;65.50;;;;;;6155427;23;20454;-89
2023/10/02 13:31:17;;;;;;;12.50;8.07;;;29.30;65.60;;;;;;6138738;23;20510;-86
2023/10/02 13:34:05;;;;;;;11.13;7.17;;;28.70;67.70;;;;;;6154155;23;20414;-86
2023/10/02 13:37:17;;;;;;;12.07;7.97;;;28.70;68.70;;;;;;6156409;23;20511;-87
2023/10/02 13:40:25;;;;;;;15.57;7.93;;;28.50;68.30;;;;;;6153249;23;20421;-88
2023/10/02 13:43:27;;;;;;;9.50;7.07;;;28.30;68.90;;;;;;6110377;23;20402;-87
2023/10/02 13:46:38;;;;;;;12.80;7.47;;;28.40;69.50;;;;;;6148864;23;20509;-87
2023/10/02 13:49:21;;;;;;;12.30;7.50;;;28.20;69.60;;;;;;6156646;23;20450;-88
2023/10/02 13:53:09;;;;;;;11.70;7.50;;;28.30;69.20;;;;;;6071859;23;20416;-88
2023/10/02 13:55:53;;;;;;;14.03;8.87;;;28.70;69.20;;;;;;6077069;23;20424;-87
2023/10/02 14:01:38;;;;;;;11.43;7.30;;;28.80;69.00;;;;;;6161328;23;20422;-86
2023/10/02 14:04:15;;;;;;;11.80;8.40;;;28.60;69.90;;;;;;6157885;23;20416;-87
2023/10/02 14:07:08;;;;;;;13.10;7.60;;;28.60;70.40;;;;;;6180998;23;20430;-87
2023/10/02 14:09:57;;;;;;;11.00;7.50;;;28.60;71.40;;;;;;6178552;23;20525;-86
2023/10/02 14:12:35;;;;;;;15.90;8.17;;;28.60;70.00;;;;;;6154237;23;20432;-85
2023/10/02 14:15:20;;;;;;;10.97;7.40;;;28.70;70.30;;;;;;6153760;23;20414;-86
2023/10/02 14:18:05;;;;;;;14.10;8.70;;;28.70;70.60;;;;;;6153674;23;20517;-87
2023/10/02 14:20:57;;;;;;;14.00;8.43;;;28.80;70.00;;;;;;6152881;23;20433;-85
2023/10/02 14:23:38;;;;;;;10.67;7.13;;;28.60;70.60;;;;;;6179362;23;20472;-86
2023/10/02 14:26:25;;;;;;;11.40;8.53;;;28.50;71.20;;;;;;6153073;23;21224;-87
2023/10/02 14:29:35;;;;;;;13.40;8.25;;;28.60;70.60;;;;;;6187875;23;20413;-85
2023/10/02 14:32:19;;;;;;;12.67;6.97;;;28.30;71.10;;;;;;6139018;23;20418;-85
2023/10/02 14:35:20;;;;;;;12.73;8.53;;;28.30;71.90;;;;;;6154641;23;20413;-87
2023/10/02 14:38:03;;;;;;;11.20;7.27;;;28.40;71.70;;;;;;6156035;23;20422;-87
2023/10/02 14:40:35;;;;;;;10.30;7.33;;;28.60;71.60;;;;;;6157103;23;20386;-86
2023/10/02 14:43:08;;;;;;;12.87;7.40;;;28.40;71.20;;;;;;6155725;23;20509;-86
2023/10/02 14:45:57;;;;;;;14.43;8.57;;;28.30;72.20;;;;;;6154004;23;20394;-85
2023/10/02 14:48:36;;;;;;;14.20;8.83;;;28.30;71.80;;;;;;6158810;23;20462;-85
2023/10/02 14:51:17;;;;;;;12.23;7.40;;;28.30;72.40;;;;;;6142208;23;20450;-86
2023/10/02 14:54:02;;;;;;;13.87;7.30;;;28.50;72.00;;;;;;6129378;23;20501;-86
2023/10/02 14:56:57;;;;;;;12.87;7.47;;;28.50;71.60;;;;;;6130660;23;20971;-85
2023/10/02 14:59:41;;;;;;;11.73;7.63;;;28.40;71.90;;;;;;6129303;23;21420;-85
2023/10/02 15:02:22;;;;;;;10.23;6.63;;;28.30;72.40;;;;;;6146441;23;20421;-87
2023/10/02 15:04:53;;;;;;;12.00;7.87;;;28.20;72.40;;;;;;6147878;23;20465;-87
2023/10/02 15:08:00;;;;;;;14.83;8.73;;;28.30;72.40;;;;;;6152281;23;20484;-86
2023/10/02 15:10:37;;;;;;;12.70;6.93;;;28.30;72.40;;;;;;6149391;23;20447;-88
2023/10/02 15:13:23;;;;;;;11.00;7.10;;;28.30;71.90;;;;;;6147997;23;20394;-87
2023/10/02 15:15:57;;;;;;;15.20;9.47;;;28.30;71.80;;;;;;6146631;23;20398;-86
2023/10/02 15:18:46;;;;;;;12.20;7.97;;;28.20;72.20;;;;;;6121674;23;20407;-87
2023/10/02 15:21:20;;;;;;;12.43;8.60;;;28.30;71.90;;;;;;6132222;23;20410;-88
2023/10/02 15:23:59;;;;;;;11.57;7.80;;;28.20;72.50;;;;;;6147763;23;20375;-87
2023/10/02 15:26:38;;;;;;;13.83;8.43;;;28.20;72.90;;;;;;6147862;23;20427;-89
2023/10/02 15:29:35;;;;;;;13.40;7.93;;;28.30;72.50;;;;;;6147821;23;20415;-89
2023/10/02 15:32:31;;;;;;;12.60;7.80;;;28.20;72.20;;;;;;6145598;23;20437;-87
2023/10/02 15:35:19;;;;;;;13.83;8.73;;;28.20;71.90;;;;;;6135269;23;20414;-88
2023/10/02 15:38:31;;;;;;;13.57;8.80;;;28.20;71.30;;;;;;6149209;23;20562;-87
2023/10/02 15:41:30;;;;;;;14.70;7.23;;;27.80;71.00;;;;;;6130510;23;20407;-86
2023/10/02 15:44:15;;;;;;;14.63;8.40;;;28.00;71.00;;;;;;6154219;23;20414;-87
2023/10/02 15:47:03;;;;;;;13.77;9.30;;;27.90;71.20;;;;;;6129841;23;20439;-87
2023/10/02 15:50:07;;;;;;;11.90;7.50;;;27.80;71.60;;;;;;6134005;23;20473;-84
2023/10/02 15:52:55;;;;;;;14.40;8.10;;;27.90;71.50;;;;;;6144406;23;20399;-86
2023/10/02 15:55:58;;;;;;;14.33;8.50;;;27.90;71.20;;;;;;6164783;23;20359;-85
2023/10/02 15:58:51;;;;;;;12.13;7.40;;;27.80;72.00;;;;;;6161333;23;20407;-85
2023/10/02 16:04:52;;;;;;;12.70;8.30;;;27.80;70.80;;;;;;6122228;23;20754;-86
2023/10/02 16:07:36;;;;;;;13.17;7.33;;;27.70;71.70;;;;;;6160966;23;20435;-86
2023/10/02 16:10:52;;;;;;;;;;;;;;;;;;;;;
2023/10/02 16:13:34;;;;;;;11.07;7.87;;;27.50;70.90;;;;;;6181070;23;20402;-88
2023/10/02 16:17:07;;;;;;;12.83;8.07;;;27.50;71.30;;;;;;6179584;23;20411;-88
2023/10/02 16:19:46;;;;;;;11.87;7.27;;;27.60;70.50;;;;;;6163366;23;20482;-87
2023/10/02 16:22:44;;;;;;;;;;;;;;;;;;;;;
2023/10/02 16:25:56;;;;;;;12.63;7.60;;;27.50;70.80;;;;;;6153635;23;20403;-86
2023/10/02 16:29:02;;;;;;;14.80;7.57;;;27.20;71.20;;;;;;6162768;23;20513;-86
2023/10/02 16:31:43;;;;;;;13.33;7.73;;;27.00;72.10;;;;;;6155461;23;20442;-86
2023/10/02 16:34:18;;;;;;;12.23;7.63;;;26.80;72.80;;;;;;6159829;23;20406;-86